Sieper, Louisiana
Current Conditions -  °F | °C
As of 1:54 AM on Friday 28 Nov 2014 (Local Time) from KBKB Reporting Station
Clear Clear  
Wind Chill: 41°   Ceiling: Unl
Heat Index: 41°   Visibility: 10mi
Dew Point: 33°   Wind: 0mph
Humidity: 73%   Direction: NA
Pressure: 30.38"   Gusts: NA
Location:  31.21°N, 92.81°W
Report Text: KBKB 280754Z AUTO 00000KT 10SM CLR 05/01 A3038 RMK AO2 SLP318 T00500006 $
Loading
Personal Weather Stations






























Interactive Weather Map New forecast layout! Learn more

10-Day Weather Forecast

Advertisements
Track Severe Weather on mobile